Time;durP1;ratioP1;P1;durP2;ratioP2;P2;SDS_P1;SDS_P2;PMS_P1;PMS_P2;Temp;Humidity;BMP_temperature;BMP_pressure;BME280_temperature;BME280_humidity;BME280_pressure;Samples;Min_cycle;Max_cycle;Signal;HPM_P1;HPM_P2
2022/04/02 00:01:42;;;;;;;3.65;2.85;;;;;;;1.08;64.94;101366.03;5078936;28;20122;-87
2022/04/02 00:04:15;;;;;;;6.25;3.65;;;;;;;1.04;64.97;101363.63;5077462;28;20069;-87
2022/04/02 00:06:40;;;;;;;4.55;3.00;;;;;;;1.16;64.92;101371.53;5077908;28;20028;-87
2022/04/02 00:09:06;;;;;;;4.47;3.20;;;;;;;1.07;64.80;101359.84;5077569;28;20034;-87
2022/04/02 00:11:34;;;;;;;8.45;3.22;;;;;;;1.10;64.56;101356.88;5077757;28;20032;-87
2022/04/02 00:14:02;;;;;;;6.10;3.58;;;;;;;1.08;64.44;101360.66;5096121;28;20036;-87
2022/04/02 00:16:27;;;;;;;4.38;2.92;;;;;;;1.09;65.05;101368.56;5095590;28;20107;-88
2022/04/02 00:18:59;;;;;;;5.00;2.97;;;;;;;1.08;64.98;101361.53;5077406;28;20028;-87
2022/04/02 00:21:33;;;;;;;3.47;3.17;;;;;;;1.10;64.55;101364.91;5077416;28;20028;-87
2022/04/02 00:23:58;;;;;;;3.88;3.20;;;;;;;1.08;64.99;101374.03;5077942;28;20122;-87
2022/04/02 00:26:34;;;;;;;5.57;3.20;;;;;;;1.07;65.54;101370.53;5095876;28;20064;-87
2022/04/02 00:28:59;;;;;;;5.18;2.85;;;;;;;1.06;65.22;101368.84;5077362;28;20047;-87
2022/04/02 00:31:29;;;;;;;4.53;3.28;;;;;;;1.07;64.79;101369.69;5077593;28;20127;-87
2022/04/02 00:33:55;;;;;;;9.50;3.33;;;;;;;1.12;65.10;101370.09;5078521;28;20054;-87
2022/04/02 00:36:25;;;;;;;4.25;3.20;;;;;;;1.10;64.60;101369.41;5095780;28;20468;-87
2022/04/02 00:38:50;;;;;;;6.15;3.30;;;;;;;1.07;64.89;101364.34;5061104;28;20121;-87
2022/04/02 00:41:16;;;;;;;4.05;2.97;;;;;;;1.04;64.59;101357.44;5077303;28;20065;-86
2022/04/02 00:43:56;;;;;;;4.45;3.08;;;;;;;1.05;64.49;101361.81;5076980;28;20032;-87
2022/04/02 00:46:25;;;;;;;4.70;3.10;;;;;;;1.06;64.34;101363.50;5077117;28;20500;-87
2022/04/02 00:49:09;;;;;;;;;;;;;;;;;;;;;
2022/04/02 00:51:45;;;;;;;3.70;2.70;;;;;;;1.01;64.67;101365.75;5079523;28;20042;-87
2022/04/02 00:54:16;;;;;;;4.03;3.08;;;;;;;1.01;64.86;101363.09;5076957;28;20443;-87
2022/04/02 00:56:50;;;;;;;6.47;3.38;;;;;;;1.09;64.89;101379.25;5077501;28;20032;-87
2022/04/02 00:59:17;;;;;;;5.05;3.10;;;;;;;0.96;64.63;101363.50;5076991;28;20142;-87
2022/04/02 01:01:53;;;;;;;6.20;3.10;;;;;;;1.01;64.98;101373.78;5060009;28;20059;-87
2022/04/02 01:04:21;;;;;;;4.60;3.00;;;;;;;0.93;65.37;101368.28;5076709;28;20135;-87
2022/04/02 01:06:47;;;;;;;4.90;2.88;;;;;;;1.01;65.34;101382.63;5076614;28;20039;-88
2022/04/02 01:09:31;;;;;;;;;;;;;;;;;;;;;
2022/04/02 01:12:00;;;;;;;4.45;3.15;;;;;;;0.92;65.11;101359.41;5095601;28;20452;-87
2022/04/02 01:14:26;;;;;;;3.97;3.08;;;;;;;1.04;65.03;101376.16;5095103;28;20042;-87
2022/04/02 01:17:01;;;;;;;;;;;;;;;;;;;;;
2022/04/02 01:19:28;;;;;;;5.28;3.25;;;;;;;0.99;64.89;101362.34;5078148;28;20093;-87
2022/04/02 01:22:01;;;;;;;3.95;2.72;;;;;;;1.12;64.36;101380.81;5076846;28;20457;-87
2022/04/02 01:24:29;;;;;;;4.85;2.95;;;;;;;1.00;64.88;101364.88;5059760;28;20495;-87
2022/04/02 01:26:57;;;;;;;3.60;3.00;;;;;;;1.04;63.75;101363.63;5076123;28;20055;-87
2022/04/02 01:29:22;;;;;;;3.67;2.60;;;;;;;1.05;64.49;101372.50;5076627;28;20056;-87
2022/04/02 01:31:48;;;;;;;3.95;3.20;;;;;;;0.99;64.20;101362.34;5094413;28;20107;-87
2022/04/02 01:34:19;;;;;;;3.58;3.00;;;;;;;0.98;64.36;101371.38;5076204;28;20036;-87
2022/04/02 01:37:04;;;;;;;4.47;2.90;;;;;;;0.96;64.28;101368.00;5076106;28;20027;-87
2022/04/02 01:39:30;;;;;;;6.25;3.08;;;;;;;0.92;64.00;101358.59;5076802;28;20465;-87
2022/04/02 01:42:05;;;;;;;5.18;2.97;;;;;;;0.90;64.37;101355.19;5076053;28;20039;-87
2022/04/02 01:44:41;;;;;;;5.03;3.00;;;;;;;1.00;63.94;101372.91;5076368;28;20024;-87
2022/04/02 01:47:07;;;;;;;3.65;2.78;;;;;;;0.97;64.18;101377.69;5076076;28;20039;-87
2022/04/02 01:49:44;;;;;;;3.20;2.90;;;;;;;0.90;64.49;101357.84;5059381;28;20032;-86
2022/04/02 01:52:09;;;;;;;4.53;2.70;;;;;;;0.91;64.05;101373.75;5075883;28;20035;-87
2022/04/02 01:54:41;;;;;;;3.72;2.80;;;;;;;0.92;64.23;101374.63;5059402;28;20408;-87
2022/04/02 01:57:12;;;;;;;6.55;2.65;;;;;;;0.87;64.49;101372.34;5076443;28;20031;-87
2022/04/02 01:59:53;;;;;;;5.07;2.80;;;;;;;0.86;64.09;101370.66;5059516;28;20050;-87
2022/04/02 02:02:20;;;;;;;4.28;2.95;;;;;;;0.85;64.06;101372.47;5094322;28;20026;-87
2022/04/02 02:04:46;;;;;;;4.47;3.08;;;;;;;0.97;63.94;101396.41;5075836;28;20040;-87
2022/04/02 02:07:16;;;;;;;3.97;2.83;;;;;;;0.92;63.60;101387.97;5075594;28;20102;-87
2022/04/02 02:09:42;;;;;;;3.97;2.75;;;;;;;0.86;63.92;101389.38;5075990;28;20490;-87
2022/04/02 02:12:10;;;;;;;3.95;3.05;;;;;;;0.81;63.70;101379.09;5075818;28;20071;-87
2022/04/02 02:14:36;;;;;;;3.35;2.85;;;;;;;0.84;63.88;101386.84;5075960;28;20028;-86
2022/04/02 02:17:01;;;;;;;4.60;3.08;;;;;;;0.84;63.44;101394.00;5058717;28;20480;-87
2022/04/02 02:19:27;;;;;;;5.45;3.45;;;;;;;0.80;63.99;101388.09;5075695;28;20468;-87
2022/04/02 02:21:52;;;;;;;4.60;3.05;;;;;;;0.77;64.15;101383.03;5075951;28;20035;-86
2022/04/02 02:24:18;;;;;;;5.32;2.67;;;;;;;0.81;64.44;101400.47;5075915;28;20478;-87
2022/04/02 02:26:44;;;;;;;3.75;2.83;;;;;;;0.70;64.25;101382.72;5075597;28;20024;-87
2022/04/02 02:29:09;;;;;;;3.78;2.70;;;;;;;0.67;64.47;101380.31;5061465;28;20534;-87
2022/04/02 02:31:40;;;;;;;4.20;3.00;;;;;;;0.64;64.53;101385.94;5055595;28;20067;-87
2022/04/02 02:37:05;;;;;;;4.18;3.00;;;;;;;0.69;64.21;101396.22;5073833;28;20106;-89
2022/04/02 02:39:38;;;;;;;4.45;2.70;;;;;;;0.67;64.50;101395.53;5056259;28;20029;-89
2022/04/02 02:42:04;;;;;;;4.10;2.97;;;;;;;0.65;64.11;101392.97;5039068;28;20032;-90
2022/04/02 02:44:29;;;;;;;3.60;2.90;;;;;;;0.68;64.29;101403.38;5073372;28;20040;-89
2022/04/02 02:46:58;;;;;;;5.50;2.88;;;;;;;0.66;64.40;101396.50;5056286;28;20111;-89
2022/04/02 02:49:23;;;;;;;3.75;2.80;;;;;;;0.65;63.93;101394.78;5055485;28;20119;-89
2022/04/02 02:51:52;;;;;;;5.68;3.03;;;;;;;0.64;63.95;101401.13;5055452;28;20115;-90
2022/04/02 02:54:23;;;;;;;6.07;3.20;;;;;;;0.65;63.50;101394.78;5056338;28;20034;-89
2022/04/02 02:56:48;;;;;;;4.43;2.80;;;;;;;0.68;64.22;101408.72;5055596;28;20087;-89
2022/04/02 02:59:14;;;;;;;4.18;2.90;;;;;;;0.67;63.85;101407.03;5055265;28;20108;-89
2022/04/02 03:01:40;;;;;;;4.13;2.53;;;;;;;0.62;63.71;101403.94;5073274;28;20456;-88
2022/04/02 03:04:05;;;;;;;3.38;2.85;;;;;;;0.61;63.97;101406.75;5055121;28;20025;-89
2022/04/02 03:06:33;;;;;;;3.50;2.75;;;;;;;0.64;64.02;101409.16;5055428;28;20024;-89
2022/04/02 03:09:01;;;;;;;5.85;2.90;;;;;;;0.58;64.39;101410.53;5055934;28;20032;-89
2022/04/02 03:11:29;;;;;;;4.40;2.78;;;;;;;0.62;64.01;101421.78;5077325;28;20035;-89
2022/04/02 03:13:57;;;;;;;3.38;2.85;;;;;;;0.57;64.17;101408.84;5059452;28;20143;-89
2022/04/02 03:16:22;;;;;;;3.97;2.83;;;;;;;0.58;64.12;101412.38;5059915;28;20429;-90
2022/04/02 03:18:50;;;;;;;5.18;2.78;;;;;;;0.51;64.72;101407.53;5058972;28;20028;-89
2022/04/02 03:21:16;;;;;;;4.25;2.83;;;;;;;0.57;64.13;101418.69;5059060;28;20043;-90
2022/04/02 03:23:49;;;;;;;4.88;2.90;;;;;;;0.51;64.45;101412.06;5058837;28;20025;-89
2022/04/02 03:26:15;;;;;;;4.97;2.90;;;;;;;0.50;64.41;101408.56;5042733;28;20025;-90
2022/04/02 03:28:46;;;;;;;7.20;3.45;;;;;;;0.50;64.22;101410.34;5058587;28;20049;-89
2022/04/02 03:31:22;;;;;;;4.60;3.10;;;;;;;0.56;64.24;101422.31;5058807;28;20109;-89
2022/04/02 03:33:50;;;;;;;4.95;2.92;;;;;;;0.55;64.07;101425.97;5058922;28;20044;-89
2022/04/02 03:36:22;;;;;;;4.90;2.83;;;;;;;0.57;64.34;101416.00;5058854;28;20081;-89
2022/04/02 03:38:50;;;;;;;4.47;2.90;;;;;;;0.59;63.73;101416.72;5042709;28;20037;-90
2022/04/02 03:41:20;;;;;;;5.47;2.63;;;;;;;0.53;63.75;101418.09;5058788;28;20068;-90
2022/04/02 03:43:46;;;;;;;4.53;2.60;;;;;;;0.52;64.66;101411.91;5076863;28;20110;-90
2022/04/02 03:48:56;;;;;;;5.20;3.20;;;;;;;0.51;64.66;101417.41;5077219;28;20035;-90
2022/04/02 03:51:21;;;;;;;5.53;3.17;;;;;;;0.44;64.89;101417.06;5058278;28;20032;-90
2022/04/02 03:53:49;;;;;;;3.97;2.90;;;;;;;0.47;64.81;101440.88;5058412;28;20162;-90
2022/04/02 03:56:23;;;;;;;4.93;2.83;;;;;;;0.43;64.86;101431.44;5042487;28;20032;-90
2022/04/02 03:58:49;;;;;;;3.88;2.80;;;;;;;0.38;65.62;101428.28;5058171;28;20103;-90
2022/04/02 04:01:27;;;;;;;;;;;;;;;;;;;;;
2022/04/02 04:03:58;;;;;;;3.55;2.85;;;;;;;0.36;65.36;101434.78;5077267;28;20028;-90
2022/04/02 04:06:29;;;;;;;3.90;2.90;;;;;;;0.36;65.43;101435.59;5058753;28;20477;-90
2022/04/02 04:08:56;;;;;;;4.07;2.80;;;;;;;0.36;65.13;101437.44;5058726;28;20120;-91
2022/04/02 04:11:26;;;;;;;3.75;2.70;;;;;;;0.31;65.27;101437.81;5076227;28;20040;-89
2022/04/02 04:13:53;;;;;;;3.35;2.60;;;;;;;0.38;65.42;101452.31;5076120;28;20033;-89
2022/04/02 04:16:19;;;;;;;4.22;2.95;;;;;;;0.32;65.75;101450.19;5058009;28;20055;-90
2022/04/02 04:18:47;;;;;;;4.78;3.08;;;;;;;0.30;65.83;101442.31;5058281;28;20471;-89
2022/04/02 04:21:14;;;;;;;4.40;3.00;;;;;;;0.34;65.35;101454.44;5057667;28;20028;-90
2022/04/02 04:23:40;;;;;;;3.90;2.80;;;;;;;0.35;65.53;101457.94;5076031;28;20029;-89
2022/04/02 04:26:08;;;;;;;4.00;2.90;;;;;;;0.32;65.09;101450.19;5058163;28;20440;-89
2022/04/02 04:28:34;;;;;;;3.78;2.85;;;;;;;0.28;65.37;101452.31;5057484;28;20063;-90
2022/04/02 04:31:02;;;;;;;4.40;2.60;;;;;;;0.28;65.54;101449.63;5058759;28;20357;-89
2022/04/02 04:33:28;;;;;;;3.20;2.80;;;;;;;0.31;65.35;101449.38;5057507;28;20571;-90
2022/04/02 04:35:56;;;;;;;4.00;2.70;;;;;;;0.28;65.49;101444.28;5057958;28;20116;-90
2022/04/02 04:38:22;;;;;;;3.63;3.10;;;;;;;0.26;65.66;101454.25;5058008;28;20032;-89
2022/04/02 04:40:48;;;;;;;4.15;3.05;;;;;;;0.28;65.55;101451.44;5058034;28;20120;-89
2022/04/02 04:43:16;;;;;;;3.53;2.78;;;;;;;0.24;66.31;101455.38;5057295;28;20028;-89
2022/04/02 04:45:44;;;;;;;4.40;3.33;;;;;;;0.23;65.39;101462.50;5075138;28;20037;-90
2022/04/02 04:48:10;;;;;;;5.15;2.90;;;;;;;0.26;65.64;101469.41;5058164;28;20016;-89
2022/04/02 04:50:38;;;;;;;3.95;3.03;;;;;;;0.24;66.08;101476.72;5057181;28;20033;-89
2022/04/02 04:53:04;;;;;;;3.78;2.85;;;;;;;0.16;66.16;101472.03;5075061;28;20033;-89
2022/04/02 04:55:30;;;;;;;3.63;2.88;;;;;;;0.15;66.37;101478.38;5040822;28;20032;-90
2022/04/02 04:57:55;;;;;;;4.03;2.90;;;;;;;0.13;66.46;101478.50;5075023;28;20033;-90
2022/04/02 05:00:23;;;;;;;4.82;3.03;;;;;;;0.13;65.83;101490.97;5057233;28;20166;-89
2022/04/02 05:02:54;;;;;;;3.08;2.72;;;;;;;0.12;65.70;101497.31;5075734;28;20500;-89
2022/04/02 05:05:27;;;;;;;5.80;2.92;;;;;;;0.11;66.43;101495.59;5074918;28;20085;-89
2022/04/02 05:07:53;;;;;;;3.10;2.60;;;;;;;0.09;65.79;101497.53;5074794;28;20043;-88
2022/04/02 05:13:08;;;;;;;3.72;2.30;;;;;;;3.93;86.43;101498.53;5088813;27;2000011;-62
2022/04/02 05:15:36;;;;;;;1.70;1.60;;;;;;;7.00;72.22;101487.94;5131990;28;20076;-62
2022/04/02 05:18:02;;;;;;;1.48;1.38;;;;;;;9.62;61.86;101487.34;5131498;28;20063;-62
2022/04/02 05:20:28;;;;;;;4.88;1.58;;;;;;;11.19;55.75;101491.53;5132011;28;20028;-62
2022/04/02 05:22:54;;;;;;;1.40;1.27;;;;;;;12.31;51.85;101482.06;5131830;28;20032;-62
2022/04/02 05:25:19;;;;;;;1.30;1.05;;;;;;;13.26;48.41;101487.81;5113237;28;20042;-62
2022/04/02 05:27:45;;;;;;;1.60;1.30;;;;;;;14.00;45.87;101490.09;5113389;28;20468;-62
2022/04/02 05:30:11;;;;;;;1.58;1.00;;;;;;;14.63;43.72;101488.25;5131726;28;20035;-63
2022/04/02 05:32:38;;;;;;;1.40;1.23;;;;;;;15.14;41.25;101502.59;5113829;28;20386;-66
2022/04/02 05:35:04;;;;;;;1.52;1.40;;;;;;;15.37;36.89;101497.22;5113241;28;20050;-65
2022/04/02 05:37:30;;;;;;;1.60;1.50;;;;;;;15.45;34.96;101509.72;5131535;28;20039;-65
2022/04/02 05:39:56;;;;;;;1.98;1.60;;;;;;;15.41;34.11;101503.03;5131426;28;20032;-65
2022/04/02 05:42:21;;;;;;;1.75;1.65;;;;;;;15.38;33.30;101501.63;5131525;28;20035;-65
2022/04/02 05:44:47;;;;;;;3.72;2.05;;;;;;;15.37;33.22;101513.63;5131400;28;20034;-64
2022/04/02 05:47:12;;;;;;;2.97;1.75;;;;;;;15.37;32.57;101519.09;5130758;28;20398;-65
2022/04/02 05:49:38;;;;;;;1.77;1.67;;;;;;;15.40;32.75;101512.34;5113069;28;20042;-74
2022/04/02 05:52:04;;;;;;;2.78;1.95;;;;;;;15.41;32.53;101513.97;5131111;28;20024;-72
2022/04/02 05:54:30;;;;;;;3.22;1.75;;;;;;;15.44;32.27;101530.78;5112672;28;20039;-68
2022/04/02 05:56:56;;;;;;;2.65;1.75;;;;;;;15.60;32.77;101532.03;5112999;28;20028;-62
2022/04/02 05:59:22;;;;;;;4.05;2.03;;;;;;;15.85;33.31;101530.22;5131123;28;20382;-63
2022/04/02 06:01:48;;;;;;;4.70;1.80;;;;;;;16.14;34.37;101537.53;5131036;28;20360;-61
2022/04/02 06:04:14;;;;;;;3.90;1.92;;;;;;;16.47;34.29;101536.13;5131076;28;20039;-62
2022/04/02 06:06:40;;;;;;;1.80;1.30;;;;;;;16.82;33.21;101540.75;5130797;28;20031;-62
2022/04/02 06:09:05;;;;;;;3.75;1.70;;;;;;;17.13;33.44;101537.88;5112495;28;20036;-61
2022/04/02 06:11:31;;;;;;;2.22;1.40;;;;;;;17.41;34.71;101541.72;5130345;28;20024;-61
2022/04/02 06:13:57;;;;;;;3.40;1.60;;;;;;;17.67;33.79;101541.13;5112684;28;20047;-62
2022/04/02 06:16:25;;;;;;;1.95;1.42;;;;;;;17.88;34.69;101547.81;5130140;28;20027;-62
2022/04/02 06:18:52;;;;;;;3.38;1.40;;;;;;;18.06;34.11;101544.03;5129693;28;20080;-62
2022/04/02 06:21:18;;;;;;;2.25;1.42;;;;;;;18.22;33.58;101547.03;5129848;28;20096;-62
2022/04/02 06:23:43;;;;;;;3.58;1.50;;;;;;;18.36;34.02;101542.84;5120850;28;20476;-62
2022/04/02 06:26:09;;;;;;;3.70;1.60;;;;;;;18.53;33.19;101551.09;5116954;28;20069;-61
2022/04/02 06:28:37;;;;;;;4.03;1.30;;;;;;;18.66;32.81;101549.06;5116939;28;20084;-62
2022/04/02 06:31:06;;;;;;;2.83;1.40;;;;;;;18.75;31.90;101548.38;5098589;28;20202;-62
2022/04/02 06:33:32;;;;;;;3.45;1.50;;;;;;;18.85;32.37;101560.59;5116334;28;20085;-62
2022/04/02 06:35:58;;;;;;;1.83;1.30;;;;;;;18.95;32.24;101563.53;5098383;28;20035;-62
2022/04/02 06:38:24;;;;;;;1.55;1.13;;;;;;;19.06;32.04;101556.22;5116767;28;20391;-62
2022/04/02 06:40:49;;;;;;;2.03;1.35;;;;;;;19.19;32.68;101566.03;5116757;28;20118;-62
2022/04/02 06:43:14;;;;;;;4.00;1.30;;;;;;;19.27;32.83;101565.59;5116649;28;20038;-61
2022/04/02 06:45:40;;;;;;;2.83;1.80;;;;;;;19.30;32.57;101565.06;5098553;28;20395;-61
2022/04/02 06:48:05;;;;;;;2.45;1.42;;;;;;;19.33;32.32;101567.31;5115919;28;20032;-62
2022/04/02 06:50:31;;;;;;;2.60;1.35;;;;;;;19.40;32.25;101570.72;5116532;28;20544;-61
2022/04/02 06:52:57;;;;;;;1.23;1.10;;;;;;;19.48;32.38;101580.41;5116420;28;20035;-61
2022/04/02 06:55:22;;;;;;;2.78;1.40;;;;;;;19.53;32.77;101579.63;5116648;28;20039;-61
2022/04/02 06:57:56;;;;;;;2.65;1.38;;;;;;;19.56;33.61;101582.72;5116361;28;20028;-61
2022/04/02 07:00:23;;;;;;;2.35;1.17;;;;;;;19.61;32.58;101595.72;5116160;28;20027;-61
2022/04/02 07:02:49;;;;;;;1.48;1.20;;;;;;;19.67;32.95;101597.41;5116239;28;20043;-62
2022/04/02 07:05:16;;;;;;;1.95;1.30;;;;;;;19.75;32.88;101591.47;5098092;28;20036;-62
2022/04/02 07:07:42;;;;;;;1.70;1.30;;;;;;;19.78;32.16;101602.00;5116100;28;20036;-62
2022/04/02 07:10:08;;;;;;;2.13;1.27;;;;;;;19.82;31.95;101604.22;5116266;28;20084;-62
2022/04/02 07:12:37;;;;;;;1.85;1.20;;;;;;;19.85;32.46;101603.69;5115714;28;20063;-61
2022/04/02 07:15:03;;;;;;;1.73;1.00;;;;;;;19.90;31.95;101609.25;5098003;28;20046;-61
2022/04/02 07:17:29;;;;;;;2.53;1.25;;;;;;;19.93;32.58;101609.56;5115010;28;20054;-62
2022/04/02 07:19:57;;;;;;;2.72;1.08;;;;;;;19.95;32.64;101618.41;5097950;28;20476;-61
2022/04/02 07:22:23;;;;;;;3.30;1.60;;;;;;;19.98;32.29;101622.56;5116180;28;20379;-61
2022/04/02 07:24:51;;;;;;;1.80;1.27;;;;;;;20.01;32.36;101610.19;5115865;28;20475;-61
2022/04/02 07:27:22;;;;;;;1.80;1.38;;;;;;;20.06;32.44;101622.06;5097648;28;20533;-62
2022/04/02 07:29:52;;;;;;;1.58;1.15;;;;;;;20.08;31.94;101619.09;5116159;28;20118;-62
2022/04/02 07:32:17;;;;;;;1.17;1.00;;;;;;;20.10;32.19;101627.91;5115466;28;20019;-62
2022/04/02 07:34:43;;;;;;;5.35;1.30;;;;;;;20.12;32.42;101617.44;5114614;28;20032;-62
2022/04/02 07:37:27;;;;;;;1.70;1.10;;;;;;;20.16;32.85;101630.44;5115629;28;20548;-62
2022/04/02 07:39:58;;;;;;;1.83;1.05;;;;;;;20.20;32.44;101635.44;5097275;28;20020;-61
2022/04/02 07:42:33;;;;;;;1.83;1.00;;;;;;;20.19;31.58;101640.13;5115552;28;20063;-62
2022/04/02 07:45:13;;;;;;;1.33;1.02;;;;;;;20.22;33.05;101652.53;5115420;28;20026;-62
2022/04/02 07:47:42;;;;;;;1.17;0.95;;;;;;;20.22;31.76;101644.28;5115137;28;20023;-62
2022/04/02 07:50:13;;;;;;;1.33;0.90;;;;;;;20.26;31.93;101646.25;5115327;28;20118;-62
2022/04/02 07:52:43;;;;;;;2.83;1.00;;;;;;;20.28;32.43;101654.25;5115447;28;20428;-62
2022/04/02 07:55:10;;;;;;;1.30;1.20;;;;;;;20.28;31.72;101643.22;5097442;28;20031;-61
2022/04/02 07:57:40;;;;;;;1.17;1.10;;;;;;;20.29;32.38;101664.19;5114947;28;20391;-61
2022/04/02 08:00:10;;;;;;;1.85;1.20;;;;;;;20.31;31.43;101648.22;5115172;28;20039;-62
2022/04/02 08:02:37;;;;;;;1.33;1.00;;;;;;;20.33;31.70;101668.09;5097923;28;20044;-62
2022/04/02 08:05:03;;;;;;;1.38;1.05;;;;;;;20.35;31.44;101656.81;5097141;28;20046;-62
2022/04/02 08:07:30;;;;;;;2.28;1.00;;;;;;;20.34;31.55;101650.44;5115002;28;20032;-62
2022/04/02 08:09:57;;;;;;;2.47;0.90;;;;;;;20.35;31.92;101656.81;5114861;28;20036;-62
2022/04/02 08:12:24;;;;;;;1.38;1.10;;;;;;;20.38;31.68;101661.78;5111839;28;20097;-62
2022/04/02 08:14:54;;;;;;;1.33;1.02;;;;;;;20.39;31.86;101653.25;5112500;28;20076;-62
2022/04/02 08:17:21;;;;;;;1.35;1.25;;;;;;;20.39;31.50;101658.78;5109475;28;20031;-62
2022/04/02 08:19:49;;;;;;;1.58;1.10;;;;;;;20.39;31.62;101664.28;5114461;28;20032;-62
2022/04/02 08:22:16;;;;;;;1.02;1.00;;;;;;;20.39;31.55;101656.00;5096157;28;20031;-62
2022/04/02 08:24:42;;;;;;;1.05;1.00;;;;;;;20.43;31.57;101668.19;5110886;28;20960;-62
2022/04/02 08:27:27;;;;;;;1.30;1.00;;;;;;;20.45;32.78;101657.72;5112927;28;20379;-62
2022/04/02 08:30:02;;;;;;;3.17;1.20;;;;;;;20.44;31.97;101657.97;5112747;28;20456;-62
2022/04/02 08:32:49;;;;;;;1.73;1.15;;;;;;;20.44;32.42;101669.00;5111692;28;20058;-62
2022/04/02 08:35:20;;;;;;;1.90;1.50;;;;;;;20.43;31.86;101678.34;5113036;28;20091;-62
2022/04/02 08:38:04;;;;;;;1.13;1.03;;;;;;;20.46;32.59;101673.16;5111707;28;20028;-62
2022/04/02 08:40:53;;;;;;;1.45;1.10;;;;;;;20.47;32.34;101674.81;5110825;28;20027;-62
2022/04/02 08:43:25;;;;;;;1.10;1.00;;;;;;;20.46;31.15;101670.41;5114076;28;20024;-62
2022/04/02 08:46:03;;;;;;;1.70;1.20;;;;;;;20.47;31.77;101685.84;5114136;28;20039;-62
2022/04/02 08:48:33;;;;;;;2.83;1.30;;;;;;;20.47;31.59;101682.25;5113658;28;20507;-62
2022/04/02 08:51:15;;;;;;;1.33;1.23;;;;;;;20.50;31.03;101684.50;5114127;28;20032;-63
2022/04/02 08:54:07;;;;;;;1.45;1.30;;;;;;;20.56;32.12;101693.63;5093671;28;20035;-63
2022/04/02 08:56:38;;;;;;;1.50;1.30;;;;;;;20.53;31.88;101689.47;5114400;28;20024;-63
2022/04/02 08:59:06;;;;;;;0.98;0.77;;;;;;;20.51;31.68;101695.25;5114176;28;20352;-63
2022/04/02 09:01:42;;;;;;;2.58;0.95;;;;;;;20.52;31.56;101687.81;5114006;28;20088;-63
2022/04/02 09:04:33;;;;;;;3.63;1.02;;;;;;;20.53;31.88;101705.19;5096019;28;20023;-63
2022/04/02 09:07:29;;;;;;;3.78;1.10;;;;;;;20.55;32.39;101705.75;5113531;28;20059;-65
2022/04/02 09:10:29;;;;;;;2.90;1.00;;;;;;;20.55;32.19;101714.88;5114288;28;20031;-65
2022/04/02 09:13:30;;;;;;;1.00;0.90;;;;;;;20.53;32.15;101718.97;5087334;28;20410;-64
2022/04/02 09:16:01;;;;;;;1.55;1.08;;;;;;;20.49;31.67;101716.75;5111938;28;20040;-65
2022/04/02 09:18:51;;;;;;;4.53;1.45;;;;;;;20.55;32.42;101728.66;5113585;28;20073;-64
2022/04/02 09:21:54;;;;;;;1.08;0.98;;;;;;;20.56;32.08;101721.22;5113589;28;20483;-64
2022/04/02 09:24:34;;;;;;;3.45;1.10;;;;;;;20.52;31.75;101720.88;5111902;28;20540;-64
2022/04/02 09:27:09;;;;;;;1.60;1.08;;;;;;;20.49;31.70;101727.78;5113600;28;20024;-63
2022/04/02 09:30:01;;;;;;;1.85;1.00;;;;;;;20.46;32.04;101731.06;5113605;28;20104;-64
2022/04/02 09:32:29;;;;;;;0.98;0.93;;;;;;;20.46;31.47;101732.94;5113662;28;20032;-64
2022/04/02 09:35:21;;;;;;;3.08;1.23;;;;;;;20.49;31.94;101727.78;5114022;28;20032;-65
2022/04/02 09:38:07;;;;;;;2.80;1.17;;;;;;;20.50;32.78;101726.66;5113710;28;20443;-63
2022/04/02 09:40:44;;;;;;;5.88;1.10;;;;;;;20.47;32.54;101737.38;5113373;28;20074;-64
2022/04/02 09:43:18;;;;;;;1.50;1.30;;;;;;;20.44;32.89;101733.22;5113816;28;20071;-64
2022/04/02 09:46:05;;;;;;;1.88;1.20;;;;;;;20.44;33.45;101733.22;5113138;28;20049;-63
2022/04/02 09:48:41;;;;;;;1.52;1.25;;;;;;;20.45;34.16;101737.66;5095083;28;20069;-63
2022/04/02 09:51:09;;;;;;;3.20;1.27;;;;;;;20.46;34.30;101732.94;5113655;28;20116;-63
2022/04/02 09:53:45;;;;;;;1.55;1.10;;;;;;;20.48;34.89;101734.38;5113759;28;20027;-64
2022/04/02 09:56:28;;;;;;;4.10;1.42;;;;;;;20.50;34.58;101736.84;5095046;28;20035;-64
2022/04/02 09:59:28;;;;;;;1.50;1.15;;;;;;;20.50;35.08;101734.94;5115646;28;20036;-63
2022/04/02 10:02:26;;;;;;;2.42;1.20;;;;;;;20.47;35.18;101734.63;5099677;28;20040;-63
2022/04/02 10:05:03;;;;;;;3.25;1.17;;;;;;;20.44;35.53;101727.72;5099173;28;20031;-63
2022/04/02 10:07:50;;;;;;;3.50;1.40;;;;;;;20.49;35.96;101738.78;5117401;28;20030;-63
2022/04/02 10:10:15;;;;;;;1.20;1.00;;;;;;;20.49;36.37;101727.78;5117273;28;20130;-63
2022/04/02 10:12:46;;;;;;;1.63;1.10;;;;;;;20.51;35.63;101728.34;5117056;28;20147;-64
2022/04/02 10:15:14;;;;;;;1.30;1.17;;;;;;;20.51;35.96;101733.03;5117125;28;20040;-63
2022/04/02 10:17:42;;;;;;;2.50;1.50;;;;;;;20.49;35.88;101735.19;5116623;28;20074;-63
2022/04/02 10:20:09;;;;;;;1.40;1.25;;;;;;;20.44;36.36;101722.19;5117214;28;20034;-63
2022/04/02 10:22:38;;;;;;;1.35;1.00;;;;;;;20.41;36.49;101713.63;5117070;28;20062;-63
2022/04/02 10:25:09;;;;;;;2.17;1.30;;;;;;;20.39;36.27;101729.56;5098577;28;20041;-63
2022/04/02 10:27:36;;;;;;;1.65;1.38;;;;;;;20.38;36.59;101717.72;5116589;28;20036;-64
2022/04/02 10:30:01;;;;;;;2.58;1.52;;;;;;;20.41;36.53;101717.19;5116861;28;20035;-65
2022/04/02 10:32:38;;;;;;;2.90;1.50;;;;;;;20.49;36.80;101719.50;5116443;28;20023;-63
2022/04/02 10:35:09;;;;;;;1.40;1.30;;;;;;;20.53;36.59;101722.56;5116882;28;20034;-63
2022/04/02 10:37:43;;;;;;;2.25;1.20;;;;;;;20.51;36.23;101713.72;5116425;28;20035;-63
2022/04/02 10:40:12;;;;;;;3.17;1.25;;;;;;;20.47;36.45;101721.66;5116661;28;20024;-63
2022/04/02 10:42:49;;;;;;;1.85;1.10;;;;;;;20.44;36.95;101724.94;5099139;28;20058;-63
2022/04/02 10:45:17;;;;;;;1.67;1.42;;;;;;;20.38;36.64;101714.16;5116533;28;20036;-63
2022/04/02 10:47:54;;;;;;;1.90;1.35;;;;;;;20.34;35.67;101722.09;5116148;28;20047;-63
2022/04/02 10:50:22;;;;;;;1.63;1.42;;;;;;;20.32;37.17;101724.28;5098388;28;20035;-64
2022/04/02 10:52:49;;;;;;;1.95;1.40;;;;;;;20.32;37.82;101719.59;5098000;28;20565;-63
2022/04/02 10:55:17;;;;;;;2.15;1.23;;;;;;;20.35;37.76;101725.69;5116421;28;20089;-64
2022/04/02 10:57:43;;;;;;;1.20;1.10;;;;;;;20.38;37.13;101730.69;5098800;28;20360;-63
2022/04/02 11:00:09;;;;;;;3.00;1.33;;;;;;;20.38;36.70;101723.25;5116240;28;20042;-63
2022/04/02 11:02:46;;;;;;;2.25;1.40;;;;;;;20.39;36.87;101724.91;5116492;28;20413;-63
2022/04/02 11:05:14;;;;;;;1.52;1.42;;;;;;;20.37;36.99;101731.78;5098059;28;20028;-63
2022/04/02 11:07:44;;;;;;;2.10;1.40;;;;;;;20.34;37.87;101722.09;5108579;28;20036;-63
2022/04/02 11:10:16;;;;;;;1.65;1.33;;;;;;;20.30;37.97;101732.00;5098337;28;20488;-63
2022/04/02 11:12:44;;;;;;;2.05;1.20;;;;;;;20.26;37.70;101728.91;5115892;28;20078;-63
2022/04/02 11:15:11;;;;;;;2.03;1.38;;;;;;;20.22;37.42;101737.94;5116165;28;20070;-63
2022/04/02 11:17:43;;;;;;;2.42;1.55;;;;;;;20.18;37.62;101745.06;5115458;28;20028;-63
2022/04/02 11:20:18;;;;;;;1.77;1.60;;;;;;;20.18;37.70;101721.09;5116189;28;20023;-63
2022/04/02 11:22:57;;;;;;;1.30;1.20;;;;;;;20.21;38.06;101728.88;5115778;28;20085;-64
2022/04/02 11:25:35;;;;;;;1.33;1.17;;;;;;;20.26;37.87;101711.56;5115809;28;20031;-63
2022/04/02 11:28:19;;;;;;;1.83;1.20;;;;;;;20.29;37.64;101717.38;5116075;28;20073;-63
2022/04/02 11:30:52;;;;;;;2.80;1.30;;;;;;;20.31;37.83;101719.84;5115879;28;20023;-64
2022/04/02 11:33:23;;;;;;;1.75;1.40;;;;;;;20.29;36.33;101711.84;5115320;28;20031;-63
2022/04/02 11:35:52;;;;;;;2.15;1.40;;;;;;;20.29;36.91;101711.84;5115588;28;20371;-63
2022/04/02 11:38:20;;;;;;;1.40;1.30;;;;;;;20.30;37.44;101719.03;5115540;28;20031;-63
2022/04/02 11:40:54;;;;;;;2.67;1.50;;;;;;;20.30;37.90;101719.03;5115976;28;20028;-63
2022/04/02 11:43:30;;;;;;;2.35;1.40;;;;;;;20.28;37.65;101723.97;5115192;28;20476;-63
2022/04/02 11:46:01;;;;;;;1.42;1.33;;;;;;;20.27;37.71;101722.31;5097329;28;20035;-63
2022/04/02 11:48:32;;;;;;;1.27;1.02;;;;;;;20.24;36.91;101724.75;5114948;28;20042;-63
2022/04/02 11:51:11;;;;;;;1.27;1.10;;;;;;;20.24;37.66;101720.09;5115293;28;20062;-63
2022/04/02 11:53:37;;;;;;;1.38;1.20;;;;;;;20.22;37.62;101725.00;5096726;28;20027;-63
2022/04/02 11:56:21;;;;;;;1.73;1.30;;;;;;;20.24;38.17;101739.38;5115089;28;20027;-64
2022/04/02 11:58:47;;;;;;;1.60;1.02;;;;;;;20.28;37.01;101723.97;5115561;28;20066;-63